createdAt,value
2018-07-12T00:00:05.760Z,95.60
2018-07-12T00:02:33.427Z,95.70
2018-07-12T00:05:00.859Z,95.70
2018-07-12T00:07:28.380Z,95.70
2018-07-12T00:09:55.867Z,95.70
2018-07-12T00:12:23.321Z,95.80
2018-07-12T00:14:50.891Z,95.90
2018-07-12T00:17:18.370Z,95.90
2018-07-12T00:19:45.808Z,96.00
2018-07-12T00:22:13.310Z,96.10
2018-07-12T00:24:40.818Z,96.00
2018-07-12T00:27:08.236Z,96.00
2018-07-12T00:29:35.886Z,95.90
2018-07-12T00:32:03.562Z,96.00
2018-07-12T00:34:31.299Z,95.90
2018-07-12T00:36:59.113Z,95.90
2018-07-12T00:39:26.691Z,95.80
2018-07-12T00:41:54.182Z,95.90
2018-07-12T00:44:21.612Z,96.20
2018-07-12T00:46:49.210Z,95.90
2018-07-12T00:49:16.666Z,96.00
2018-07-12T00:51:44.226Z,96.10
2018-07-12T00:54:11.800Z,95.90
2018-07-12T00:56:39.382Z,95.70
2018-07-12T00:59:06.882Z,95.60
2018-07-12T01:01:34.394Z,95.60
2018-07-12T01:04:01.914Z,95.60
2018-07-12T01:06:29.474Z,95.40
2018-07-12T01:08:56.956Z,95.40
2018-07-12T01:11:24.358Z,95.40
2018-07-12T01:13:51.828Z,95.30
2018-07-12T01:16:19.290Z,95.10
2018-07-12T01:18:46.806Z,95.30
2018-07-12T01:21:14.231Z,95.20
2018-07-12T01:23:41.707Z,95.00
2018-07-12T01:26:09.183Z,94.90
2018-07-12T01:28:36.785Z,95.00
2018-07-12T01:31:04.246Z,95.00
2018-07-12T01:33:31.612Z,95.00
2018-07-12T01:35:59.088Z,94.70
2018-07-12T01:38:26.723Z,94.70
2018-07-12T01:40:54.280Z,94.50
2018-07-12T01:43:21.912Z,94.40
2018-07-12T01:45:49.402Z,94.40
2018-07-12T01:48:16.918Z,94.70
2018-07-12T01:50:44.452Z,94.40
2018-07-12T01:53:11.927Z,94.30
2018-07-12T01:55:39.383Z,94.30
2018-07-12T01:58:07.060Z,94.30
2018-07-12T02:00:34.617Z,94.30
2018-07-12T02:03:02.170Z,94.20
2018-07-12T02:05:29.639Z,94.10
2018-07-12T02:07:57.057Z,94.20
2018-07-12T02:10:24.531Z,94.10
2018-07-12T02:12:52.000Z,94.10
2018-07-12T02:15:19.483Z,93.90
2018-07-12T02:17:47.089Z,93.90
2018-07-12T02:22:42.484Z,94.00
2018-07-12T02:25:09.946Z,94.00
2018-07-12T02:27:37.406Z,93.90
2018-07-12T02:30:04.905Z,93.80
2018-07-12T02:32:32.343Z,94.00
2018-07-12T02:34:59.876Z,94.00
2018-07-12T02:37:27.300Z,94.30
2018-07-12T02:39:57.842Z,94.20
2018-07-12T02:42:25.340Z,94.10
2018-07-12T02:44:53.048Z,94.30
2018-07-12T02:47:20.951Z,94.60
2018-07-12T02:49:48.576Z,94.40
2018-07-12T02:52:16.450Z,94.30
2018-07-12T02:57:11.792Z,94.40
2018-07-12T02:59:39.400Z,94.60
2018-07-12T03:02:06.991Z,94.60
2018-07-12T03:04:34.583Z,95.00
2018-07-12T03:07:02.342Z,94.60
2018-07-12T03:09:29.993Z,94.70
2018-07-12T03:11:57.653Z,94.80
2018-07-12T03:14:25.283Z,95.10
2018-07-12T03:16:52.825Z,95.10
2018-07-12T03:19:20.316Z,95.20
2018-07-12T03:21:47.842Z,95.00
2018-07-12T03:24:15.427Z,95.00
2018-07-12T03:26:43.020Z,95.10
2018-07-12T03:29:10.546Z,95.20
2018-07-12T03:31:38.045Z,95.20
2018-07-12T03:34:05.671Z,95.10
2018-07-12T03:36:33.200Z,95.30
2018-07-12T03:39:00.792Z,95.40
2018-07-12T03:41:28.395Z,95.20
2018-07-12T03:43:55.895Z,95.30
2018-07-12T03:46:23.468Z,95.30
2018-07-12T03:48:51.116Z,95.40
2018-07-12T03:51:18.710Z,95.40
2018-07-12T03:53:46.236Z,95.30
2018-07-12T03:56:13.799Z,95.40
2018-07-12T03:58:41.336Z,95.40
2018-07-12T04:03:36.717Z,95.40
2018-07-12T04:06:04.160Z,95.50
2018-07-12T04:08:31.713Z,95.30
2018-07-12T04:13:27.129Z,95.90
2018-07-12T04:20:50.664Z,95.60
2018-07-12T04:23:18.410Z,95.70
2018-07-12T04:25:46.228Z,95.60
2018-07-12T04:28:14.051Z,95.50
2018-07-12T04:30:41.568Z,95.30
2018-07-12T04:33:09.095Z,95.30
2018-07-12T04:35:38.100Z,95.40
2018-07-12T04:38:05.572Z,95.40
2018-07-12T04:40:32.998Z,95.60
2018-07-12T04:43:00.716Z,95.60
2018-07-12T04:45:28.245Z,95.40
2018-07-12T04:47:55.832Z,95.50
2018-07-12T04:50:23.288Z,95.60
2018-07-12T04:52:50.801Z,95.60
2018-07-12T04:55:18.975Z,95.40
2018-07-12T04:57:46.504Z,95.30
2018-07-12T05:00:14.050Z,95.30
2018-07-12T05:02:41.539Z,95.10
2018-07-12T05:05:09.028Z,95.10
2018-07-12T05:07:36.479Z,95.00
2018-07-12T05:10:06.204Z,94.90
2018-07-12T05:12:33.752Z,94.80
2018-07-12T05:15:01.256Z,95.00
2018-07-12T05:17:28.728Z,94.90
2018-07-12T05:19:56.228Z,95.10
2018-07-12T05:22:23.766Z,95.00
2018-07-12T05:24:51.301Z,94.90
2018-07-12T05:27:18.771Z,94.90
2018-07-12T05:29:46.456Z,94.60
2018-07-12T05:32:14.135Z,94.40
2018-07-12T05:34:41.748Z,94.20
2018-07-12T05:37:10.618Z,94.10
2018-07-12T05:39:39.432Z,94.10
2018-07-12T05:42:08.381Z,93.80
2018-07-12T05:44:37.257Z,93.40
2018-07-12T05:47:06.075Z,93.20
2018-07-12T05:52:03.563Z,92.70
2018-07-12T05:54:32.402Z,92.80
2018-07-12T05:57:01.541Z,92.60
2018-07-12T05:59:30.634Z,92.80
2018-07-12T06:02:10.553Z,92.30
2018-07-12T06:04:39.485Z,92.30
2018-07-12T06:07:08.758Z,92.50
2018-07-12T06:09:38.083Z,92.10
2018-07-12T06:12:07.042Z,91.40
2018-07-12T06:14:35.912Z,92.10
2018-07-12T06:17:04.792Z,92.20
2018-07-12T06:19:33.606Z,91.80
2018-07-12T06:22:02.604Z,91.50
2018-07-12T06:24:32.233Z,91.40
2018-07-12T06:27:01.460Z,90.80
2018-07-12T06:29:30.434Z,84.30
2018-07-12T06:31:59.287Z,83.20
2018-07-12T06:34:28.435Z,82.70
2018-07-12T06:36:57.329Z,85.50
2018-07-12T06:39:26.383Z,85.00
2018-07-12T06:41:55.091Z,85.70
2018-07-12T06:44:24.088Z,87.60
2018-07-12T06:49:21.601Z,85.00
2018-07-12T06:51:50.598Z,85.50
2018-07-12T06:54:19.459Z,83.80
2018-07-12T06:56:48.348Z,80.30
2018-07-12T06:59:17.284Z,81.60
2018-07-12T07:01:46.234Z,83.80
2018-07-12T07:04:15.199Z,81.40
2018-07-12T07:06:44.192Z,79.80
2018-07-12T07:09:13.055Z,80.40
2018-07-12T07:11:41.994Z,80.30
2018-07-12T07:14:10.940Z,79.80
2018-07-12T07:16:39.907Z,79.20
2018-07-12T07:19:08.830Z,75.70
2018-07-12T07:21:37.682Z,74.20
2018-07-12T07:24:06.542Z,75.40
2018-07-12T07:26:35.270Z,73.80
2018-07-12T07:29:04.360Z,74.80
2018-07-12T07:31:33.117Z,75.10
2018-07-12T07:34:01.935Z,73.30
2018-07-12T07:36:30.734Z,73.70
2018-07-12T07:38:59.704Z,71.00
2018-07-12T07:43:57.112Z,67.00
2018-07-12T07:46:25.927Z,67.70
2018-07-12T07:48:54.712Z,67.10
2018-07-12T07:51:23.661Z,68.00
2018-07-12T07:53:52.537Z,65.40
2018-07-12T07:56:21.467Z,62.30
2018-07-12T07:58:50.556Z,65.00
2018-07-12T08:01:19.515Z,64.60
2018-07-12T08:03:48.559Z,64.00
2018-07-12T08:06:17.391Z,60.50
2018-07-12T08:08:46.302Z,59.70
2018-07-12T08:11:15.254Z,58.60
2018-07-12T08:16:12.783Z,60.80
2018-07-12T08:18:41.585Z,59.90
2018-07-12T08:21:13.646Z,57.40
2018-07-12T08:23:43.151Z,56.50
2018-07-12T08:26:12.069Z,54.60
2018-07-12T08:28:40.814Z,56.20
2018-07-12T08:31:09.636Z,53.70
2018-07-12T08:33:38.546Z,52.80
2018-07-12T08:36:07.462Z,52.70
2018-07-12T08:38:36.226Z,54.20
2018-07-12T08:41:05.602Z,55.60
2018-07-12T08:43:34.441Z,54.50
2018-07-12T08:46:03.317Z,56.20
2018-07-12T08:48:32.162Z,53.30
2018-07-12T08:51:01.473Z,52.10
2018-07-12T08:53:30.392Z,52.10
2018-07-12T08:55:59.299Z,52.10
2018-07-12T08:58:28.040Z,53.50
2018-07-12T09:00:56.868Z,53.90
2018-07-12T09:03:25.628Z,51.40
2018-07-12T09:05:54.494Z,49.40
2018-07-12T09:08:23.375Z,50.10
2018-07-12T09:10:52.387Z,51.70
2018-07-12T09:13:21.346Z,49.20
2018-07-12T09:15:50.281Z,49.00
2018-07-12T09:18:19.046Z,48.60
2018-07-12T09:20:47.906Z,46.30
2018-07-12T09:23:16.737Z,47.30
2018-07-12T09:25:45.506Z,51.40
2018-07-12T09:28:14.232Z,51.50
2018-07-12T09:30:43.140Z,50.10
2018-07-12T09:33:11.947Z,49.40
2018-07-12T09:35:40.740Z,49.20
2018-07-12T09:38:20.824Z,50.80
2018-07-12T09:40:49.494Z,52.30
2018-07-12T09:43:18.294Z,52.30
2018-07-12T09:45:47.006Z,51.70
2018-07-12T09:48:15.941Z,51.10
2018-07-12T09:50:44.778Z,50.10
2018-07-12T09:53:13.646Z,48.60
2018-07-12T09:55:42.595Z,47.10
2018-07-12T09:58:22.394Z,48.90
2018-07-12T10:00:56.348Z,51.20
2018-07-12T10:03:29.348Z,50.60
2018-07-12T10:05:58.714Z,50.20
2018-07-12T10:08:33.050Z,51.00
2018-07-12T10:11:07.021Z,50.50
2018-07-12T10:13:41.046Z,50.20
2018-07-12T10:16:15.286Z,51.30
2018-07-12T10:18:44.158Z,50.50
2018-07-12T10:21:12.966Z,50.80
2018-07-12T10:23:41.884Z,51.30
2018-07-12T10:26:10.690Z,52.50
2018-07-12T10:28:40.770Z,50.90
2018-07-12T10:31:09.558Z,50.90
2018-07-12T10:33:38.382Z,50.50
2018-07-12T10:36:07.139Z,50.80
2018-07-12T10:38:35.821Z,50.30
2018-07-12T10:41:04.706Z,51.80
2018-07-12T10:43:33.656Z,51.00
2018-07-12T10:46:02.545Z,51.50
2018-07-12T10:48:31.328Z,50.70
2018-07-12T10:51:00.275Z,51.40
2018-07-12T10:53:29.166Z,50.60
2018-07-12T10:55:58.048Z,50.80
2018-07-12T10:58:27.307Z,51.80
2018-07-12T11:00:56.412Z,52.10
2018-07-12T11:03:25.140Z,50.70
2018-07-12T11:05:54.040Z,49.40
2018-07-12T11:08:22.983Z,49.00
2018-07-12T11:10:51.975Z,49.30
2018-07-12T11:13:30.849Z,47.80
2018-07-12T11:15:59.686Z,47.60
2018-07-12T11:18:28.707Z,45.40
2018-07-12T11:20:57.708Z,47.10
2018-07-12T11:23:26.478Z,45.90
2018-07-12T11:25:55.298Z,46.00
2018-07-12T11:28:24.190Z,47.50
2018-07-12T11:30:52.966Z,47.10
2018-07-12T11:33:37.723Z,44.90
2018-07-12T11:36:07.101Z,46.60
2018-07-12T11:38:37.771Z,48.50
2018-07-12T11:41:07.207Z,47.60
2018-07-12T11:43:36.018Z,45.90
2018-07-12T11:46:06.097Z,44.50
2018-07-12T11:48:36.105Z,44.90
2018-07-12T11:51:05.063Z,43.00
2018-07-12T11:53:34.170Z,44.80
2018-07-12T11:56:03.310Z,43.50
2018-07-12T11:58:32.237Z,43.50
2018-07-12T12:01:01.415Z,43.10
2018-07-12T12:03:30.883Z,44.00
2018-07-12T12:05:59.860Z,43.60
2018-07-12T12:08:28.732Z,44.10
2018-07-12T12:10:57.656Z,44.70
2018-07-12T12:13:26.509Z,44.10
2018-07-12T12:15:55.461Z,45.10
2018-07-12T12:18:24.329Z,46.10
2018-07-12T12:20:53.350Z,47.30
2018-07-12T12:23:22.168Z,47.80
2018-07-12T12:25:50.893Z,48.80
2018-07-12T12:28:19.940Z,49.60
2018-07-12T12:30:48.800Z,51.60
2018-07-12T12:33:17.564Z,50.50
2018-07-12T12:35:46.390Z,51.90
2018-07-12T12:38:15.243Z,51.60
2018-07-12T12:40:43.971Z,50.70
2018-07-12T12:43:12.740Z,51.20
2018-07-12T12:45:41.522Z,51.50
2018-07-12T12:48:10.237Z,52.70
2018-07-12T12:50:39.017Z,53.00
2018-07-12T12:53:07.757Z,54.20
2018-07-12T12:55:36.545Z,54.60
2018-07-12T12:58:05.379Z,55.30
2018-07-12T13:00:34.239Z,55.70
2018-07-12T13:03:03.063Z,56.80
2018-07-12T13:05:31.748Z,57.80
2018-07-12T13:08:00.439Z,58.90
2018-07-12T13:10:29.097Z,59.30
2018-07-12T13:12:57.833Z,59.00
2018-07-12T13:15:26.644Z,59.70
2018-07-12T13:17:55.431Z,59.30
2018-07-12T13:20:24.191Z,60.20
2018-07-12T13:22:53.220Z,61.20
2018-07-12T13:25:22.156Z,60.90
2018-07-12T13:27:51.079Z,59.40
2018-07-12T13:30:20.000Z,58.80
2018-07-12T13:32:48.784Z,58.00
2018-07-12T13:35:17.610Z,58.30
2018-07-12T13:37:46.304Z,57.70
2018-07-12T13:40:15.099Z,57.90
2018-07-12T13:42:43.856Z,58.10
2018-07-12T13:45:12.600Z,56.60
2018-07-12T13:47:41.424Z,56.80
2018-07-12T13:50:10.144Z,57.20
2018-07-12T13:52:38.963Z,57.10
2018-07-12T13:55:07.783Z,57.10
2018-07-12T13:57:36.646Z,57.20
2018-07-12T14:00:05.475Z,59.60
2018-07-12T14:02:34.210Z,61.50
2018-07-12T14:05:03.075Z,58.80
2018-07-12T14:07:32.412Z,58.30
2018-07-12T14:10:01.314Z,57.30
2018-07-12T14:12:30.104Z,56.60
2018-07-12T14:14:58.739Z,57.20
2018-07-12T14:17:27.684Z,58.00
2018-07-12T14:19:56.537Z,58.70
2018-07-12T14:22:25.404Z,58.00
2018-07-12T14:24:54.087Z,57.40
2018-07-12T14:27:22.890Z,58.40
2018-07-12T14:29:51.575Z,56.70
2018-07-12T14:34:48.940Z,58.10
2018-07-12T14:37:17.680Z,57.50
2018-07-12T14:39:46.443Z,58.30
2018-07-12T14:42:15.142Z,58.40
2018-07-12T14:44:43.964Z,58.00
2018-07-12T14:47:12.680Z,58.10
2018-07-12T14:49:41.378Z,57.50
2018-07-12T14:52:10.108Z,55.30
2018-07-12T14:54:38.903Z,55.00
2018-07-12T14:57:07.764Z,54.70
2018-07-12T14:59:37.715Z,55.80
2018-07-12T15:02:06.638Z,52.50
2018-07-12T15:04:35.378Z,53.20
2018-07-12T15:07:04.344Z,52.70
2018-07-12T15:09:33.236Z,51.40
2018-07-12T15:12:01.906Z,51.90
2018-07-12T15:14:30.709Z,52.00
2018-07-12T15:16:59.476Z,51.90
2018-07-12T15:19:28.269Z,52.70
2018-07-12T15:21:57.030Z,53.30
2018-07-12T15:24:26.075Z,52.90
2018-07-12T15:26:54.944Z,53.60
2018-07-12T15:29:23.738Z,52.40
2018-07-12T15:31:52.445Z,52.50
2018-07-12T15:36:49.666Z,54.80
2018-07-12T15:39:18.354Z,54.50
2018-07-12T15:41:47.125Z,52.50
2018-07-12T15:44:15.762Z,54.20
2018-07-12T15:46:44.513Z,55.20
2018-07-12T15:49:13.294Z,54.50
2018-07-12T15:51:42.154Z,53.50
2018-07-12T15:54:11.055Z,53.20
2018-07-12T15:56:39.854Z,53.40
2018-07-12T15:59:08.752Z,51.40
2018-07-12T16:01:37.417Z,52.60
2018-07-12T16:04:06.133Z,53.60
2018-07-12T16:06:34.883Z,54.30
2018-07-12T16:09:03.797Z,52.00
2018-07-12T16:11:32.472Z,52.70
2018-07-12T16:14:01.251Z,54.30
2018-07-12T16:16:30.124Z,53.20
2018-07-12T16:18:58.826Z,53.00
2018-07-12T16:21:27.547Z,53.90
2018-07-12T16:23:56.260Z,53.20
2018-07-12T16:26:25.075Z,53.70
2018-07-12T16:28:53.795Z,54.40
2018-07-12T16:31:22.563Z,53.70
2018-07-12T16:33:51.208Z,53.80
2018-07-12T16:36:20.016Z,53.90
2018-07-12T16:38:48.785Z,54.90
2018-07-12T16:41:17.468Z,53.80
2018-07-12T16:43:46.227Z,55.20
2018-07-12T16:46:14.931Z,53.40
2018-07-12T16:48:43.665Z,52.50
2018-07-12T16:51:12.410Z,52.60
2018-07-12T16:53:41.266Z,53.20
2018-07-12T16:56:09.969Z,53.70
2018-07-12T16:58:38.780Z,54.00
2018-07-12T17:01:07.447Z,54.30
2018-07-12T17:03:36.177Z,54.90
2018-07-12T17:06:04.860Z,53.80
2018-07-12T17:11:02.019Z,52.60
2018-07-12T17:15:59.114Z,53.60
2018-07-12T17:18:28.059Z,53.60
2018-07-12T17:20:56.778Z,53.10
2018-07-12T17:23:25.419Z,53.50
2018-07-12T17:25:54.250Z,53.20
2018-07-12T17:28:22.976Z,53.90
2018-07-12T17:30:51.644Z,53.90
2018-07-12T17:33:20.463Z,53.70
2018-07-12T17:35:49.328Z,53.40
2018-07-12T17:38:17.956Z,53.40
2018-07-12T17:40:46.768Z,54.20
2018-07-12T17:43:15.515Z,54.10
2018-07-12T17:45:44.190Z,54.60
2018-07-12T17:48:12.984Z,55.10
2018-07-12T17:50:41.765Z,55.30
2018-07-12T17:53:10.558Z,55.90
2018-07-12T17:55:39.260Z,55.80
2018-07-12T17:58:08.048Z,55.90
2018-07-12T18:00:36.822Z,56.40
2018-07-12T18:03:05.751Z,56.50
2018-07-12T18:05:34.554Z,56.80
2018-07-12T18:08:03.345Z,56.40
2018-07-12T18:10:32.144Z,57.10
2018-07-12T18:13:00.901Z,56.10
2018-07-12T18:15:29.651Z,56.60
2018-07-12T18:17:58.239Z,57.20
2018-07-12T18:20:26.936Z,57.70
2018-07-12T18:22:55.756Z,57.70
2018-07-12T18:25:24.527Z,58.40
2018-07-12T18:27:53.375Z,58.30
2018-07-12T18:30:22.154Z,58.40
2018-07-12T18:32:50.906Z,59.80
2018-07-12T18:35:19.595Z,60.40
2018-07-12T18:37:48.254Z,61.70
2018-07-12T18:40:17.084Z,62.00
2018-07-12T18:42:45.788Z,63.70
2018-07-12T18:45:14.450Z,63.10
2018-07-12T18:47:43.156Z,62.80
2018-07-12T18:52:40.125Z,64.20
2018-07-12T18:55:08.802Z,64.90
2018-07-12T19:00:06.128Z,65.90
2018-07-12T19:02:34.975Z,66.20
2018-07-12T19:05:03.640Z,66.40
2018-07-12T19:07:32.386Z,67.70
2018-07-12T19:10:00.970Z,68.80
2018-07-12T19:12:29.662Z,67.60
2018-07-12T19:14:58.418Z,68.10
2018-07-12T19:17:27.069Z,66.30
2018-07-12T19:19:56.554Z,66.30
2018-07-12T19:22:25.335Z,67.50
2018-07-12T19:24:53.998Z,66.70
2018-07-12T19:27:22.724Z,67.10
2018-07-12T19:29:51.426Z,68.00
2018-07-12T19:32:20.116Z,68.50
2018-07-12T19:37:16.992Z,67.90
2018-07-12T19:39:46.084Z,67.90
2018-07-12T19:42:14.764Z,68.30
2018-07-12T19:44:43.395Z,67.90
2018-07-12T19:47:12.032Z,68.10
2018-07-12T19:49:40.754Z,68.40
2018-07-12T19:52:09.350Z,68.90
2018-07-12T19:54:38.124Z,69.90
2018-07-12T19:57:06.844Z,70.10
2018-07-12T19:59:35.548Z,69.40
2018-07-12T20:02:04.222Z,70.10
2018-07-12T20:04:32.928Z,70.30
2018-07-12T20:07:02.674Z,70.30
2018-07-12T20:09:31.178Z,71.10
2018-07-12T20:11:59.730Z,71.60
2018-07-12T20:14:28.207Z,72.90
2018-07-12T20:16:56.866Z,71.70
2018-07-12T20:19:25.346Z,71.50
2018-07-12T20:21:53.861Z,73.60
2018-07-12T20:24:23.271Z,74.20
2018-07-12T20:26:51.935Z,74.50
2018-07-12T20:29:20.577Z,74.50
2018-07-12T20:31:49.407Z,74.40
2018-07-12T20:39:14.622Z,76.20
2018-07-12T20:41:43.350Z,77.30
2018-07-12T20:44:11.951Z,77.50
2018-07-12T20:46:42.397Z,77.90
2018-07-12T20:49:11.011Z,78.70
2018-07-12T20:51:39.677Z,79.30
2018-07-12T20:54:08.364Z,81.00
2018-07-12T20:56:37.103Z,81.80
2018-07-12T20:59:05.881Z,81.80
2018-07-12T21:01:35.411Z,82.20
2018-07-12T21:04:04.212Z,82.30
2018-07-12T21:06:32.973Z,83.50
2018-07-12T21:09:01.832Z,83.10
2018-07-12T21:11:30.620Z,82.90
2018-07-12T21:13:59.317Z,82.90
2018-07-12T21:16:28.000Z,83.50
2018-07-12T21:18:56.844Z,84.00
2018-07-12T21:21:25.531Z,84.80
2018-07-12T21:23:54.274Z,85.00
2018-07-12T21:26:22.944Z,85.90
2018-07-12T21:28:51.701Z,86.10
2018-07-12T21:31:21.905Z,86.40
2018-07-12T21:33:50.637Z,86.00
2018-07-12T21:36:19.191Z,86.60
2018-07-12T21:38:48.016Z,87.90
2018-07-12T21:41:16.672Z,87.50
2018-07-12T21:43:45.359Z,88.50
2018-07-12T21:46:13.967Z,87.90
2018-07-12T21:48:42.628Z,88.40
2018-07-12T21:51:11.183Z,88.30
2018-07-12T21:53:41.941Z,88.00
2018-07-12T21:56:10.607Z,88.80
2018-07-12T21:58:39.307Z,88.80
2018-07-12T22:01:07.930Z,89.60
2018-07-12T22:03:36.588Z,88.90
2018-07-12T22:06:05.347Z,89.40
2018-07-12T22:08:34.007Z,88.00
2018-07-12T22:11:04.997Z,87.60
2018-07-12T22:13:35.185Z,88.10
2018-07-12T22:16:03.839Z,87.70
2018-07-12T22:18:32.535Z,88.00
2018-07-12T22:21:01.361Z,88.40
2018-07-12T22:23:30.179Z,88.80
2018-07-12T22:25:58.906Z,87.80
2018-07-12T22:28:27.640Z,88.20
2018-07-12T22:30:56.372Z,89.00
2018-07-12T22:33:24.980Z,88.60
2018-07-12T22:35:53.749Z,90.00
2018-07-12T22:38:22.395Z,89.70
2018-07-12T22:40:51.114Z,89.30
2018-07-12T22:43:19.758Z,89.60
2018-07-12T22:45:49.099Z,89.40
2018-07-12T22:48:17.845Z,89.40
2018-07-12T22:50:46.580Z,89.00
2018-07-12T22:53:15.282Z,88.50
2018-07-12T22:55:44.026Z,88.60
2018-07-12T22:58:12.698Z,88.40
2018-07-12T23:00:43.050Z,88.20
2018-07-12T23:03:11.802Z,88.40
2018-07-12T23:05:40.544Z,88.20
2018-07-12T23:08:09.311Z,88.20
2018-07-12T23:10:38.032Z,88.60
2018-07-12T23:13:06.788Z,89.40
2018-07-12T23:15:35.538Z,88.60
2018-07-12T23:18:04.206Z,88.50
2018-07-12T23:20:33.790Z,89.20
2018-07-12T23:23:02.580Z,89.00
2018-07-12T23:25:31.268Z,89.00
2018-07-12T23:27:59.881Z,89.00
2018-07-12T23:30:28.562Z,89.20
2018-07-12T23:32:57.282Z,89.30
2018-07-12T23:35:26.078Z,89.80
2018-07-12T23:37:54.829Z,90.10
2018-07-12T23:40:23.505Z,90.20
2018-07-12T23:42:52.192Z,90.20
2018-07-12T23:45:20.889Z,90.30
2018-07-12T23:47:49.577Z,90.40
2018-07-12T23:50:18.420Z,90.10
2018-07-12T23:52:47.124Z,90.30
2018-07-12T23:55:15.950Z,90.30
2018-07-12T23:57:44.697Z,90.80
